Flight Track Log - Related Links

Times and Time Zones

All times are in EDT time to prevent confusion due to time zone crossing. See the SKW6492 flight status page for this flight to view local times or setup timezone preferences in your user account.

Time Position Orientation Groundspeed Altitude Reporting Facility
EDT Latitude Longitude Course Direction KTS MPH feet Rate Location/Type
Mon 09:43:18 PM 39.9500 -104.6833 348° North 234 269 7,700  Level Denver TRACON
Mon 09:44:18 PM 40.0167 -104.6667 11° North 295 339 9,100 1,515 Climbing Denver TRACON
Mon 09:45:00 PM 40.2787 -104.8052 347° North  Level FlightAware Approximate
Mon 09:45:01 PM 40.0864 -104.6681 359° North 301 346 10,300  Level Denver Center
Mon 09:46:00 PM 40.3860 -104.8398 346° North  Level FlightAware Approximate
Mon 09:46:02 PM 40.1831 -104.6928 349° North 352 405 11,600  Level Denver Center
Mon 09:47:00 PM 40.4932 -104.8755 346° North  Level FlightAware Approximate
Mon 09:47:04 PM 40.2786 -104.7169 349° North 348 400 13,300  Level Denver Center
Mon 09:48:00 PM 40.6011 -104.9074 348° North  Level FlightAware Approximate
Mon 09:48:06 PM 40.3869 -104.7442 349° North 369 425 14,800  Level Denver Center
Mon 09:49:07 PM 40.4892 -104.7728 348° North 374 430 16,300 1,244 Climbing Denver Center
Mon 09:50:21 PM 40.5953 -104.7989 349° North 383 441 17,600 1,324 Climbing Denver Center
Mon 09:51:23 PM 40.7267 -104.8344 348° North 392 451 19,300 1,355 Climbing Denver Center
Mon 09:52:25 PM 40.8358 -104.8764 344° North 389 448 20,400 927 Climbing Denver Center
Mon 09:53:26 PM 40.9206 -104.9647 322° Northwest 390 449 21,200 927 Climbing Denver Center
Mon 09:54:28 PM 41.0153 -105.0628 322° Northwest 392 451 22,300 1,016 Climbing Denver Center
Mon 09:55:30 PM 41.0972 -105.1492 322° Northwest 392 451 23,300 976 Climbing Denver Center
Mon 09:56:31 PM 41.1781 -105.2356 321° Northwest 390 449 24,300 1,024 Climbing Denver Center
Mon 09:57:33 PM 41.2719 -105.3369 321° Northwest 389 448 25,400 823 Climbing Denver Center
Mon 09:58:35 PM 41.3539 -105.4222 322° Northwest 389 448 26,000 288 Climbing Denver Center
Mon 09:59:38 PM 41.4522 -105.5269 321° Northwest 401 461 26,000  Level Denver Center
Mon 10:00:51 PM 41.5408 -105.6197 322° Northwest 414 476 26,000  Level Denver Center
Mon 10:01:53 PM 41.6614 -105.7508 321° Northwest 431 496 26,000  Level Denver Center
Mon 10:03:07 PM 41.7558 -105.8506 322° Northwest 445 512 26,000  Level Denver Center
Mon 10:04:09 PM 41.8797 -105.9847 321° Northwest 450 518 26,000  Level Denver Center
Mon 10:05:10 PM 41.9744 -106.0872 321° Northwest 454 522 26,000  Level Denver Center
Mon 10:06:12 PM 42.0842 -106.2078 321° Northwest 455 524 26,000  Level Denver Center
Mon 10:07:14 PM 42.1775 -106.3103 321° Northwest 453 521 26,000  Level Denver Center
Mon 10:08:16 PM 42.2892 -106.4319 321° Northwest 458 527 26,000  Level Denver Center
Mon 10:09:17 PM 42.3839 -106.5364 321° Northwest 458 527 26,000  Level Denver Center
Mon 10:10:20 PM 42.4781 -106.6419 320° Northwest 460 529 26,000  Level Denver Center
Mon 10:11:21 PM 42.5878 -106.7644 321° Northwest 458 527 26,000  Level Denver Center
Mon 10:12:23 PM 42.6819 -106.8708 320° Northwest 460 529 26,000  Level Denver Center
Mon 10:13:25 PM 42.7933 -106.9956 321° Northwest 462 532 26,000  Level Denver Center
Mon 10:14:27 PM 42.8869 -107.1022 320° Northwest 459 528 26,000  Level Denver Center
Mon 10:15:29 PM 42.9969 -107.2283 320° Northwest 462 532 26,000  Level Denver Center
Mon 10:16:43 PM 43.0939 -107.3364 321° Northwest 466 536 26,000  Level Denver Center
Mon 10:17:45 PM 43.2239 -107.4878 320° Northwest 468 539 26,000  Level Denver Center
Mon 10:18:47 PM 43.3200 -107.5969 320° Northwest 470 541 26,000  Level Denver Center
Mon 10:19:49 PM 43.4314 -107.7281 319° Northwest 469 540 26,000  Level Salt Lake Center
Mon 10:20:51 PM 43.5272 -107.8386 320° Northwest 470 541 26,000  Level Salt Lake Center
Mon 10:21:52 PM 43.6225 -107.9506 320° Northwest 470 541 26,000  Level Salt Lake Center
Mon 10:22:54 PM 43.7339 -108.0800 320° Northwest 470 541 26,000 -240 Level Salt Lake Center
Mon 10:23:57 PM 43.8278 -108.1933 319° Northwest 470 541 25,500 -1,839 Descending Salt Lake Center
Mon 10:24:58 PM 43.9317 -108.3161 320° Northwest 444 511 22,200 -2,951 Descending Salt Lake Center
Mon 10:25:59 PM 44.0111 -108.4047 321° Northwest 431 496 19,500 -2,656 Descending Salt Lake Center
Mon 10:27:00 PM 44.0906 -108.5141 317° Northwest  Level FlightAware Approximate
Mon 10:34:00 PM 44.5167 -109.0167 325° Northwest  Level FlightAware Approximate
Mon 10:35:00 PM 44.5202 -109.0238 325° Northwest  Level Estimated
Mon 10:36:00 PM 44.5167 -109.0167 325° Northwest  Level FlightAware Approximate
Mon 10:37:00 PM 44.5202 -109.0238 325° Northwest  Level Estimated
Mon 10:38:00 PM 44.5167 -109.0167 325° Northwest  Level FlightAware Approximate
Mon 10:39:00 PM 44.5202 -109.0238 325° Northwest  Level Estimated
Mon 10:40:00 PM 44.5167 -109.0167 325° Northwest  Level FlightAware Approximate

Login

Don't have an account? Register now (free) for customized features, flight alerts, and more!